createdAt,value
2018-04-18T00:01:00.000Z,100022
2018-04-18T00:06:00.000Z,100022
2018-04-18T00:11:00.000Z,100019
2018-04-18T00:16:00.000Z,100032
2018-04-18T00:21:00.000Z,100039
2018-04-18T00:26:00.000Z,100049
2018-04-18T00:31:00.000Z,100049
2018-04-18T00:36:00.000Z,100049
2018-04-18T00:41:00.000Z,100052
2018-04-18T00:46:00.000Z,100053
2018-04-18T00:51:00.000Z,100046
2018-04-18T00:56:00.000Z,100061
2018-04-18T01:01:00.000Z,100058
2018-04-18T01:06:00.000Z,100057
2018-04-18T01:11:00.000Z,100060
2018-04-18T01:16:00.000Z,100060
2018-04-18T01:21:00.000Z,100056
2018-04-18T01:26:00.000Z,100066
2018-04-18T01:31:00.000Z,100063
2018-04-18T01:36:00.000Z,100061
2018-04-18T01:41:00.000Z,100073
2018-04-18T01:46:00.000Z,100071
2018-04-18T01:51:00.000Z,100068
2018-04-18T01:56:00.000Z,100087
2018-04-18T02:01:00.000Z,100080
2018-04-18T02:06:00.000Z,100085
2018-04-18T02:11:00.000Z,100076
2018-04-18T02:16:00.000Z,100088
2018-04-18T02:21:00.000Z,100093
2018-04-18T02:26:00.000Z,100100
2018-04-18T02:31:00.000Z,100101
2018-04-18T02:36:00.000Z,100093
2018-04-18T02:41:00.000Z,100108
2018-04-18T02:46:00.000Z,100107
2018-04-18T02:51:00.000Z,100113
2018-04-18T02:56:00.000Z,100119
2018-04-18T03:01:00.000Z,100110
2018-04-18T03:06:00.000Z,100117
2018-04-18T03:11:00.000Z,100129
2018-04-18T03:16:00.000Z,100120
2018-04-18T03:21:00.000Z,100133
2018-04-18T03:26:00.000Z,100130
2018-04-18T03:31:00.000Z,100136
2018-04-18T03:36:00.000Z,100144
2018-04-18T03:41:00.000Z,100141
2018-04-18T03:46:00.000Z,100142
2018-04-18T03:51:00.000Z,100153
2018-04-18T03:56:00.000Z,100149
2018-04-18T04:01:00.000Z,100156
2018-04-18T04:06:00.000Z,100160
2018-04-18T04:11:00.000Z,100168
2018-04-18T04:16:00.000Z,100167
2018-04-18T04:21:00.000Z,100166
2018-04-18T04:26:00.000Z,100176
2018-04-18T04:31:00.000Z,100175
2018-04-18T04:36:00.000Z,100178
2018-04-18T04:41:00.000Z,100196
2018-04-18T04:46:00.000Z,100192
2018-04-18T04:51:00.000Z,100188
2018-04-18T04:56:00.000Z,100204
2018-04-18T05:01:00.000Z,100206
2018-04-18T05:06:00.000Z,100213
2018-04-18T05:11:00.000Z,100209
2018-04-18T05:16:00.000Z,100225
2018-04-18T05:21:00.000Z,100235
2018-04-18T05:26:00.000Z,100238
2018-04-18T05:31:00.000Z,100240
2018-04-18T05:36:00.000Z,100240
2018-04-18T05:41:00.000Z,100257
2018-04-18T05:46:00.000Z,100251
2018-04-18T05:52:00.000Z,100266
2018-04-18T05:57:00.000Z,100258
2018-04-18T06:02:00.000Z,100262
2018-04-18T06:07:00.000Z,100269
2018-04-18T06:12:00.000Z,100276
2018-04-18T06:17:00.000Z,100278
2018-04-18T06:22:00.000Z,100283
2018-04-18T06:27:00.000Z,100280
2018-04-18T06:32:00.000Z,100281
2018-04-18T06:37:00.000Z,100286
2018-04-18T06:42:00.000Z,100294
2018-04-18T06:47:00.000Z,100290
2018-04-18T06:52:00.000Z,100295
2018-04-18T06:57:00.000Z,100294
2018-04-18T07:02:00.000Z,100304
2018-04-18T07:07:00.000Z,100293
2018-04-18T07:12:00.000Z,100298
2018-04-18T07:17:00.000Z,100310
2018-04-18T07:22:00.000Z,100307
2018-04-18T07:27:00.000Z,100311
2018-04-18T07:32:00.000Z,100308
2018-04-18T07:37:00.000Z,100314
2018-04-18T07:42:00.000Z,100322
2018-04-18T07:47:00.000Z,100323
2018-04-18T07:52:00.000Z,100331
2018-04-18T07:57:00.000Z,100329
2018-04-18T08:02:00.000Z,100330
2018-04-18T08:07:00.000Z,100336
2018-04-18T08:12:00.000Z,100337
2018-04-18T08:17:00.000Z,100331
2018-04-18T08:22:00.000Z,100342
2018-04-18T08:27:00.000Z,100343
2018-04-18T08:32:00.000Z,100351
2018-04-18T08:37:00.000Z,100339
2018-04-18T08:42:00.000Z,100342
2018-04-18T08:47:00.000Z,100351
2018-04-18T08:52:00.000Z,100343
2018-04-18T08:57:00.000Z,100351
2018-04-18T09:02:00.000Z,100348
2018-04-18T09:07:00.000Z,100349
2018-04-18T09:12:00.000Z,100339
2018-04-18T09:17:00.000Z,100335
2018-04-18T09:22:00.000Z,100345
2018-04-18T09:27:00.000Z,100342
2018-04-18T09:32:00.000Z,100343
2018-04-18T09:37:00.000Z,100345
2018-04-18T09:42:00.000Z,100341
2018-04-18T09:47:00.000Z,100347
2018-04-18T09:52:00.000Z,100340
2018-04-18T09:57:00.000Z,100330
2018-04-18T10:02:00.000Z,100328
2018-04-18T10:07:00.000Z,100330
2018-04-18T10:12:00.000Z,100311
2018-04-18T10:17:00.000Z,100318
2018-04-18T10:22:00.000Z,100318
2018-04-18T10:27:00.000Z,100324
2018-04-18T10:32:00.000Z,100325
2018-04-18T10:37:00.000Z,100312
2018-04-18T10:42:00.000Z,100304
2018-04-18T10:47:00.000Z,100307
2018-04-18T10:52:00.000Z,100307
2018-04-18T10:57:00.000Z,100305
2018-04-18T11:02:00.000Z,100293
2018-04-18T11:07:00.000Z,100296
2018-04-18T11:12:00.000Z,100282
2018-04-18T11:17:00.000Z,100285
2018-04-18T11:22:00.000Z,100279
2018-04-18T11:27:00.000Z,100273
2018-04-18T11:32:00.000Z,100263
2018-04-18T11:37:00.000Z,100271
2018-04-18T11:42:00.000Z,100272
2018-04-18T11:47:00.000Z,100268
2018-04-18T11:52:00.000Z,100269
2018-04-18T11:57:00.000Z,100264
2018-04-18T12:02:00.000Z,100263
2018-04-18T12:08:00.000Z,100265
2018-04-18T12:13:00.000Z,100256
2018-04-18T12:18:00.000Z,100254
2018-04-18T12:23:00.000Z,100238
2018-04-18T12:28:00.000Z,100240
2018-04-18T12:33:00.000Z,100244
2018-04-18T12:38:00.000Z,100239
2018-04-18T12:43:00.000Z,100229
2018-04-18T12:48:00.000Z,100231
2018-04-18T12:53:00.000Z,100223
2018-04-18T12:58:00.000Z,100223
2018-04-18T13:03:00.000Z,100220
2018-04-18T13:08:00.000Z,100219
2018-04-18T13:13:00.000Z,100212
2018-04-18T13:18:00.000Z,100209
2018-04-18T13:23:00.000Z,100198
2018-04-18T13:28:00.000Z,100211
2018-04-18T13:33:00.000Z,100209
2018-04-18T13:38:00.000Z,100207
2018-04-18T13:43:00.000Z,100207
2018-04-18T13:48:00.000Z,100198
2018-04-18T13:53:00.000Z,100193
2018-04-18T13:58:00.000Z,100187
2018-04-18T14:03:00.000Z,100188
2018-04-18T14:08:00.000Z,100182
2018-04-18T14:13:00.000Z,100186
2018-04-18T14:18:00.000Z,100177
2018-04-18T14:23:00.000Z,100184
2018-04-18T14:28:00.000Z,100176
2018-04-18T14:33:00.000Z,100179
2018-04-18T14:38:00.000Z,100169
2018-04-18T14:43:00.000Z,100172
2018-04-18T14:48:00.000Z,100165
2018-04-18T14:53:00.000Z,100170
2018-04-18T14:58:00.000Z,100167
2018-04-18T15:03:00.000Z,100164
2018-04-18T15:08:00.000Z,100167
2018-04-18T15:13:00.000Z,100165
2018-04-18T15:18:00.000Z,100155
2018-04-18T15:23:00.000Z,100155
2018-04-18T15:28:00.000Z,100153
2018-04-18T15:33:00.000Z,100154
2018-04-18T15:38:00.000Z,100154
2018-04-18T15:43:00.000Z,100149
2018-04-18T15:48:00.000Z,100150
2018-04-18T15:53:00.000Z,100147
2018-04-18T15:58:00.000Z,100146
2018-04-18T16:03:00.000Z,100136
2018-04-18T16:08:00.000Z,100154
2018-04-18T16:13:00.000Z,100143
2018-04-18T16:18:00.000Z,100142
2018-04-18T16:23:00.000Z,100149
2018-04-18T16:28:00.000Z,100135
2018-04-18T16:33:00.000Z,100139
2018-04-18T16:38:00.000Z,100134
2018-04-18T16:43:00.000Z,100138
2018-04-18T16:48:00.000Z,100140
2018-04-18T16:53:00.000Z,100136
2018-04-18T16:58:00.000Z,100138
2018-04-18T17:03:00.000Z,100135
2018-04-18T17:08:00.000Z,100132
2018-04-18T17:14:00.000Z,100140
2018-04-18T17:19:00.000Z,100132
2018-04-18T17:24:00.000Z,100141
2018-04-18T17:29:00.000Z,100141
2018-04-18T17:34:00.000Z,100137
2018-04-18T17:39:00.000Z,100137
2018-04-18T17:44:00.000Z,100148
2018-04-18T17:49:00.000Z,100143
2018-04-18T17:54:00.000Z,100142
2018-04-18T17:59:00.000Z,100149
2018-04-18T18:04:00.000Z,100146
2018-04-18T18:09:00.000Z,100152
2018-04-18T18:14:00.000Z,100155
2018-04-18T18:19:00.000Z,100151
2018-04-18T18:24:00.000Z,100148
2018-04-18T18:29:00.000Z,100159
2018-04-18T18:34:00.000Z,100164
2018-04-18T18:39:00.000Z,100178
2018-04-18T18:44:00.000Z,100178
2018-04-18T18:49:00.000Z,100171
2018-04-18T18:54:00.000Z,100183
2018-04-18T18:59:00.000Z,100193
2018-04-18T19:04:00.000Z,100196
2018-04-18T19:09:00.000Z,100182
2018-04-18T19:14:00.000Z,100187
2018-04-18T19:19:00.000Z,100182
2018-04-18T19:24:00.000Z,100178
2018-04-18T19:29:00.000Z,100175
2018-04-18T19:34:00.000Z,100178
2018-04-18T19:39:00.000Z,100188
2018-04-18T19:44:00.000Z,100181
2018-04-18T19:49:00.000Z,100179
2018-04-18T19:54:00.000Z,100182
2018-04-18T19:59:00.000Z,100181
2018-04-18T20:04:00.000Z,100182
2018-04-18T20:09:00.000Z,100183
2018-04-18T20:14:00.000Z,100176
2018-04-18T20:19:00.000Z,100174
2018-04-18T20:24:00.000Z,100164
2018-04-18T20:29:00.000Z,100174
2018-04-18T20:34:00.000Z,100175
2018-04-18T20:39:00.000Z,100171
2018-04-18T20:44:00.000Z,100178
2018-04-18T20:49:00.000Z,100177
2018-04-18T20:54:00.000Z,100182
2018-04-18T20:59:00.000Z,100167
2018-04-18T21:04:00.000Z,100167
2018-04-18T21:09:00.000Z,100178
2018-04-18T21:14:00.000Z,100169
2018-04-18T21:19:00.000Z,100173
2018-04-18T21:24:00.000Z,100178
2018-04-18T21:29:00.000Z,100177
2018-04-18T21:34:00.000Z,100175
2018-04-18T21:39:00.000Z,100172
2018-04-18T21:44:00.000Z,100182
2018-04-18T21:49:00.000Z,100184
2018-04-18T21:54:00.000Z,100190
2018-04-18T21:59:00.000Z,100190
2018-04-18T22:04:00.000Z,100188
2018-04-18T22:09:00.000Z,100196
2018-04-18T22:14:00.000Z,100198
2018-04-18T22:19:00.000Z,100206
2018-04-18T22:24:00.000Z,100206
2018-04-18T22:29:00.000Z,100202
2018-04-18T22:34:00.000Z,100207
2018-04-18T22:39:00.000Z,100213
2018-04-18T22:44:00.000Z,100219
2018-04-18T22:49:00.000Z,100208
2018-04-18T22:54:00.000Z,100210
2018-04-18T22:59:00.000Z,100217
2018-04-18T23:04:00.000Z,100229
2018-04-18T23:09:00.000Z,100222
2018-04-18T23:14:00.000Z,100228
2018-04-18T23:19:00.000Z,100218
2018-04-18T23:25:00.000Z,100214
2018-04-18T23:30:00.000Z,100223
2018-04-18T23:35:00.000Z,100216
2018-04-18T23:40:00.000Z,100213
2018-04-18T23:45:00.000Z,100212
2018-04-18T23:50:00.000Z,100207
2018-04-18T23:55:00.000Z,100211
